Time;durP1;ratioP1;P1;durP2;ratioP2;P2;SDS_P1;SDS_P2;PMS_P1;PMS_P2;Temp;Humidity;BMP_temperature;BMP_pressure;BME280_temperature;BME280_humidity;BME280_pressure;Samples;Min_cycle;Max_cycle;Signal;HPM_P1;HPM_P2
2021/12/21 00:00:33;;;;;;;4.88;3.70;;;;;;;6.15;43.83;101482.34;5069606;28;20940;-66
2021/12/21 00:03:00;;;;;;;6.10;3.70;;;;;;;6.21;43.82;101482.03;5070071;28;20490;-66
2021/12/21 00:05:29;;;;;;;5.07;3.38;;;;;;;6.19;43.84;101486.53;5070459;28;20770;-65
2021/12/21 00:07:59;;;;;;;6.80;4.43;;;;;;;6.06;44.11;101493.34;5070363;28;20845;-66
2021/12/21 00:10:29;;;;;;;6.10;4.53;;;;;;;5.94;44.32;101493.94;5070334;28;20540;-65
2021/12/21 00:13:09;;;;;;;5.13;3.97;;;;;;;6.00;44.16;101501.53;5055310;28;21179;-66
2021/12/21 00:15:53;;;;;;;6.88;4.32;;;;;;;6.02;44.27;101502.31;5070410;28;20518;-65
2021/12/21 00:18:32;;;;;;;6.50;4.33;;;;;;;5.99;44.32;101511.22;5070417;28;20407;-65
2021/12/21 00:21:05;;;;;;;5.47;4.00;;;;;;;6.06;44.11;101511.75;5070419;28;20468;-66
2021/12/21 00:23:38;;;;;;;5.13;3.50;;;;;;;6.19;43.89;101519.88;5070034;28;20411;-66
2021/12/21 00:26:08;;;;;;;4.38;3.30;;;;;;;6.17;43.67;101519.94;5070068;28;20415;-66
2021/12/21 00:28:41;;;;;;;4.50;3.60;;;;;;;6.13;43.75;101521.03;5069961;28;20927;-66
2021/12/21 00:31:08;;;;;;;4.35;3.25;;;;;;;6.22;43.59;101520.59;5070317;28;20414;-65
2021/12/21 00:33:39;;;;;;;4.57;3.25;;;;;;;6.20;43.54;101524.19;5070202;28;20411;-66
2021/12/21 00:36:06;;;;;;;4.53;3.00;;;;;;;6.17;43.60;101533.09;5070279;28;20407;-66
2021/12/21 00:38:35;;;;;;;4.50;3.20;;;;;;;6.14;43.88;101529.78;5069854;28;20415;-65
2021/12/21 00:41:02;;;;;;;4.75;3.47;;;;;;;6.17;43.67;101527.00;5070167;28;20505;-66
2021/12/21 00:43:29;;;;;;;4.72;3.40;;;;;;;6.23;43.46;101529.31;5069842;28;20415;-66
2021/12/21 00:45:56;;;;;;;3.97;3.08;;;;;;;6.25;43.29;101535.34;5069635;28;20942;-65
2021/12/21 00:48:28;;;;;;;3.42;2.78;;;;;;;6.17;43.51;101541.00;5069761;28;20979;-65
2021/12/21 00:50:55;;;;;;;4.15;2.90;;;;;;;6.15;43.90;101537.59;5070066;28;20502;-65
2021/12/21 00:53:25;;;;;;;4.75;2.85;;;;;;;6.18;43.63;101545.34;5067515;28;20502;-65
2021/12/21 00:55:53;;;;;;;4.15;3.00;;;;;;;6.27;43.42;101549.28;5069910;28;20535;-65
2021/12/21 00:58:20;;;;;;;3.58;2.75;;;;;;;6.19;43.56;101541.78;5069901;28;20407;-66
2021/12/21 01:00:47;;;;;;;4.15;3.00;;;;;;;6.27;43.60;101540.53;5069720;28;20494;-66
2021/12/21 01:03:16;;;;;;;6.03;3.72;;;;;;;6.13;43.92;101543.88;5069823;28;20487;-65
2021/12/21 01:05:49;;;;;;;4.75;3.60;;;;;;;6.11;44.05;101533.41;5069721;28;20754;-65
2021/12/21 01:08:17;;;;;;;5.65;3.58;;;;;;;6.08;44.09;101532.72;5069487;28;20455;-65
2021/12/21 01:10:55;;;;;;;4.38;3.80;;;;;;;6.11;44.16;101546.56;5069656;28;20476;-66
2021/12/21 01:13:39;;;;;;;5.72;4.07;;;;;;;6.15;44.05;101540.22;5053798;28;20534;-65
2021/12/21 01:16:18;;;;;;;4.20;3.50;;;;;;;6.08;44.42;101541.44;5069221;28;20438;-66
2021/12/21 01:19:01;;;;;;;4.47;3.78;;;;;;;6.19;44.22;101549.66;5069600;28;20411;-66
2021/12/21 01:21:33;;;;;;;3.88;3.33;;;;;;;6.00;44.82;101556.78;5069575;28;20438;-66
2021/12/21 01:27:02;;;;;;;4.60;3.40;;;;;;;5.99;44.96;101542.78;5069251;28;20451;-65
2021/12/21 01:29:37;;;;;;;4.45;3.28;;;;;;;5.82;45.34;101538.34;5069577;28;20445;-65
2021/12/21 01:32:11;;;;;;;5.15;3.50;;;;;;;5.88;45.32;101549.47;5069193;28;20421;-66
2021/12/21 01:34:48;;;;;;;5.15;3.47;;;;;;;5.90;45.30;101550.25;5069443;28;20434;-65
2021/12/21 01:37:22;;;;;;;5.00;3.60;;;;;;;5.82;45.61;101554.13;5069069;28;20912;-66
2021/12/21 01:39:59;;;;;;;4.57;3.70;;;;;;;5.88;45.43;101547.72;5068895;28;20912;-66
2021/12/21 01:42:38;;;;;;;3.78;3.30;;;;;;;5.94;45.42;101550.03;5069052;28;20808;-66
2021/12/21 01:50:37;;;;;;;5.15;3.63;;;;;;;5.75;45.80;101560.59;5029232;28;20409;-65
2021/12/21 01:53:04;;;;;;;4.88;3.70;;;;;;;5.72;45.83;101559.91;5029078;28;20867;-65
2021/12/21 01:55:31;;;;;;;5.10;3.55;;;;;;;5.70;46.05;101561.78;5029286;28;20434;-66
2021/12/21 01:57:58;;;;;;;5.40;4.10;;;;;;;5.62;46.22;101567.41;5029491;28;20421;-65
2021/12/21 02:00:29;;;;;;;4.50;3.67;;;;;;;5.56;46.26;101573.78;5029031;28;20509;-65
2021/12/21 02:02:56;;;;;;;5.78;4.22;;;;;;;5.60;46.09;101574.50;5029230;28;20470;-65
2021/12/21 02:05:24;;;;;;;5.18;4.05;;;;;;;5.41;46.53;101575.38;5029026;28;20411;-65
2021/12/21 02:07:51;;;;;;;5.70;3.90;;;;;;;5.40;46.69;101578.91;5029299;28;20496;-65
2021/12/21 02:10:18;;;;;;;4.88;4.10;;;;;;;5.46;46.49;101597.97;5028915;28;21007;-65
2021/12/21 02:12:45;;;;;;;6.03;4.40;;;;;;;5.46;46.20;101600.59;5009406;28;21197;-67
2021/12/21 02:15:12;;;;;;;5.95;4.45;;;;;;;5.53;46.15;101608.09;5029144;28;20521;-66
2021/12/21 02:18:27;;;;;;;6.53;4.95;;;;;;;5.52;46.30;101609.03;5029246;28;20502;-65
2021/12/21 02:20:59;;;;;;;5.53;4.30;;;;;;;5.54;46.06;101601.09;5028732;28;20547;-66
2021/12/21 02:23:31;;;;;;;5.60;3.90;;;;;;;5.14;46.77;101605.56;5029189;28;20460;-66
2021/12/21 02:31:35;;;;;;;5.28;3.58;;;;;;;4.85;47.47;101586.72;4987382;28;20421;-65
2021/12/21 02:34:03;;;;;;;5.47;4.00;;;;;;;4.80;47.62;101588.69;5019090;28;20425;-65
2021/12/21 02:36:31;;;;;;;4.60;3.90;;;;;;;4.75;47.63;101590.69;5031991;28;20429;-65
2021/12/21 02:38:59;;;;;;;5.73;4.43;;;;;;;4.86;47.59;101600.69;5032601;28;20433;-65
2021/12/21 02:41:26;;;;;;;6.82;4.93;;;;;;;4.85;47.41;101589.34;5032298;28;20425;-66
2021/12/21 02:43:54;;;;;;;7.13;5.07;;;;;;;4.75;47.91;101595.94;5032535;28;20442;-65
2021/12/21 02:46:22;;;;;;;5.82;4.60;;;;;;;4.65;47.83;101590.25;5048129;28;20973;-65
2021/12/21 02:48:49;;;;;;;6.05;4.78;;;;;;;4.56;48.18;101596.75;5071999;28;20532;-65
2021/12/21 02:51:15;;;;;;;5.97;4.40;;;;;;;4.49;48.39;101600.53;5072192;28;20482;-65
2021/12/21 02:53:44;;;;;;;7.13;5.20;;;;;;;4.50;48.49;101602.25;5071882;28;20905;-66
2021/12/21 02:56:11;;;;;;;6.10;4.65;;;;;;;4.44;48.53;101605.16;5072145;28;20476;-65
2021/12/21 02:58:39;;;;;;;7.95;5.85;;;;;;;4.52;48.47;101600.44;5054192;28;20506;-66
2021/12/21 03:01:08;;;;;;;9.68;6.05;;;;;;;4.53;48.54;101594.25;5072000;28;20422;-66
2021/12/21 03:03:35;;;;;;;8.73;5.90;;;;;;;4.49;48.59;101604.94;5071696;28;20414;-65
2021/12/21 03:06:04;;;;;;;167.33;101.67;;;;;;;4.54;48.71;101608.22;5071566;28;20801;-66
2021/12/21 03:08:38;;;;;;;10.85;7.60;;;;;;;4.52;48.74;101610.94;5071585;28;20411;-65
2021/12/21 03:11:14;;;;;;;22.33;20.52;;;;;;;4.58;48.82;101609.78;5072140;28;20411;-65
2021/12/21 03:14:04;;;;;;;24.95;23.15;;;;;;;4.40;49.01;101603.59;5055896;28;20437;-65
2021/12/21 03:16:33;;;;;;;13.48;12.27;;;;;;;4.40;49.19;101611.44;5071627;28;20430;-65
2021/12/21 03:19:00;;;;;;;15.55;14.45;;;;;;;4.33;49.35;101615.25;5071447;28;20501;-65
2021/12/21 03:21:29;;;;;;;7.70;7.00;;;;;;;4.34;49.35;101611.69;5071607;28;20416;-65
2021/12/21 03:23:57;;;;;;;6.47;5.50;;;;;;;4.43;49.19;101608.69;5071917;28;20489;-66
2021/12/21 03:26:26;;;;;;;14.02;12.82;;;;;;;4.26;49.42;101608.53;5071263;28;20883;-66
2021/12/21 03:28:53;;;;;;;9.38;8.48;;;;;;;4.27;49.45;101605.00;5071281;28;20494;-65
2021/12/21 03:31:20;;;;;;;10.23;9.13;;;;;;;4.21;49.73;101612.19;5071171;28;20963;-65
2021/12/21 03:33:48;;;;;;;11.75;10.70;;;;;;;4.15;49.84;101609.84;5071058;28;20494;-66
2021/12/21 03:36:16;;;;;;;16.25;14.95;;;;;;;4.09;50.00;101617.97;5071294;28;20476;-65
2021/12/21 03:38:48;;;;;;;8.32;7.18;;;;;;;4.03;50.22;101615.59;5071298;28;20766;-65
2021/12/21 03:41:16;;;;;;;15.00;13.80;;;;;;;4.02;50.40;101613.91;5070993;28;20446;-65
2021/12/21 03:43:45;;;;;;;11.93;10.93;;;;;;;4.03;50.19;101615.59;5070891;28;20792;-65
2021/12/21 03:46:14;;;;;;;7.25;6.53;;;;;;;3.93;50.52;101616.88;5070378;28;20421;-65
2021/12/21 03:48:44;;;;;;;6.30;5.47;;;;;;;3.86;50.70;101615.44;5070649;28;20409;-65
2021/12/21 03:51:12;;;;;;;6.63;5.93;;;;;;;3.89;50.63;101613.53;5070754;28;20411;-65
2021/12/21 03:53:39;;;;;;;7.45;6.72;;;;;;;3.72;51.06;101608.97;5071045;28;20494;-65
2021/12/21 03:56:24;;;;;;;5.38;4.82;;;;;;;3.74;51.26;101617.63;5070920;28;20437;-65
2021/12/21 03:58:53;;;;;;;7.88;6.72;;;;;;;3.77;51.06;101628.00;5070958;28;20513;-65
2021/12/21 04:01:20;;;;;;;8.25;6.90;;;;;;;3.73;51.35;101626.41;5070552;28;20415;-65
2021/12/21 04:03:47;;;;;;;7.00;6.30;;;;;;;3.76;51.28;101623.66;5070380;28;20458;-65
2021/12/21 04:06:13;;;;;;;6.43;5.57;;;;;;;3.65;51.35;101631.09;5070452;28;20407;-65
2021/12/21 04:08:41;;;;;;;7.37;5.60;;;;;;;3.69;51.37;101632.69;5071030;28;20553;-65
2021/12/21 04:11:07;;;;;;;9.27;5.53;;;;;;;3.72;51.26;101636.94;5070361;28;20486;-65
2021/12/21 04:13:34;;;;;;;5.85;5.22;;;;;;;3.62;51.62;101639.06;5054724;28;20418;-65
2021/12/21 04:16:05;;;;;;;7.55;6.05;;;;;;;3.51;52.01;101630.78;5070298;28;20430;-65
2021/12/21 04:18:35;;;;;;;13.73;12.45;;;;;;;3.53;52.19;101619.34;5070496;28;20749;-65
2021/12/21 04:21:02;;;;;;;13.00;11.70;;;;;;;3.53;52.33;101611.47;5070351;28;20415;-66
2021/12/21 04:23:29;;;;;;;27.80;20.55;;;;;;;3.51;52.42;101609.84;5070235;28;20407;-65
2021/12/21 04:25:56;;;;;;;21.83;16.07;;;;;;;3.39;53.00;101611.16;5070002;28;20419;-65
2021/12/21 04:28:23;;;;;;;19.40;13.35;;;;;;;3.36;52.82;101606.88;5070236;28;20421;-65
2021/12/21 04:30:50;;;;;;;16.35;11.57;;;;;;;3.45;52.90;101612.66;5070404;28;20410;-65
2021/12/21 04:33:18;;;;;;;12.63;9.00;;;;;;;3.45;52.71;101615.28;5070202;28;20553;-65
2021/12/21 04:35:45;;;;;;;11.27;7.80;;;;;;;3.35;52.92;101615.66;5069756;28;20510;-65
2021/12/21 04:38:20;;;;;;;8.83;7.40;;;;;;;3.36;53.04;101632.22;5070111;28;20490;-65
2021/12/21 04:40:50;;;;;;;9.50;8.50;;;;;;;3.33;53.12;101638.44;5069641;28;20788;-66
2021/12/21 04:43:17;;;;;;;7.13;5.90;;;;;;;3.18;53.74;101642.50;5069842;28;20411;-65
2021/12/21 04:45:45;;;;;;;7.23;6.53;;;;;;;3.26;53.74;101652.66;5070025;28;20505;-66
2021/12/21 04:48:12;;;;;;;6.93;6.10;;;;;;;3.27;53.88;101656.16;5070028;28;20415;-65
2021/12/21 04:50:41;;;;;;;7.57;6.65;;;;;;;3.16;54.21;101657.41;5069680;28;20848;-65
2021/12/21 04:53:08;;;;;;;8.07;6.32;;;;;;;3.20;55.33;101660.72;5069906;28;20490;-66
2021/12/21 04:55:35;;;;;;;6.65;5.95;;;;;;;3.26;55.36;101657.88;5027759;28;20510;-65
2021/12/21 04:58:03;;;;;;;9.32;6.78;;;;;;;3.19;55.00;101667.75;5097610;27;20501;-65
2021/12/21 05:00:30;;;;;;;6.55;5.95;;;;;;;3.25;55.16;101666.66;5089690;28;20417;-65
2021/12/21 05:02:57;;;;;;;6.30;5.65;;;;;;;3.27;54.45;101669.25;5089743;28;20455;-65
2021/12/21 05:05:24;;;;;;;10.10;9.07;;;;;;;3.23;54.66;101663.25;5089748;28;20795;-65
2021/12/21 05:08:05;;;;;;;7.72;6.93;;;;;;;3.20;54.64;101684.31;5089900;28;20413;-65
2021/12/21 05:10:32;;;;;;;5.60;5.05;;;;;;;3.15;54.79;101678.41;5089935;28;20409;-65
2021/12/21 05:12:59;;;;;;;38.65;35.50;;;;;;;3.20;55.02;101684.31;5087874;28;20515;-65
2021/12/21 05:15:26;;;;;;;8.63;7.82;;;;;;;3.21;54.86;101688.66;5083364;28;20428;-67
2021/12/21 05:17:53;;;;;;;10.32;8.20;;;;;;;3.09;55.25;101692.56;5077006;28;20495;-65
2021/12/21 05:20:20;;;;;;;14.43;11.73;;;;;;;2.96;55.72;101686.91;5089768;28;20397;-65
2021/12/21 05:22:48;;;;;;;14.20;11.60;;;;;;;3.07;55.57;101688.28;5089683;28;20942;-65
2021/12/21 05:25:18;;;;;;;13.40;11.82;;;;;;;3.08;55.54;101690.00;5089760;28;20405;-66
2021/12/21 05:27:45;;;;;;;9.68;8.68;;;;;;;3.14;55.31;101687.16;5089638;28;20409;-65
2021/12/21 05:30:13;;;;;;;9.35;7.38;;;;;;;3.08;55.39;101684.75;5088910;28;20416;-65
2021/12/21 05:32:40;;;;;;;8.10;7.30;;;;;;;3.07;55.59;101683.91;5085418;28;20497;-65
2021/12/21 05:35:08;;;;;;;9.00;8.13;;;;;;;3.06;55.80;101697.03;5087565;28;20409;-65
2021/12/21 05:37:37;;;;;;;9.10;7.00;;;;;;;3.00;55.81;101685.91;5088022;28;20433;-66
2021/12/21 05:40:11;;;;;;;10.95;9.77;;;;;;;2.93;56.01;101686.16;5089048;28;20415;-65
2021/12/21 05:42:40;;;;;;;19.67;17.58;;;;;;;3.07;55.71;101693.53;5088469;28;20964;-65
2021/12/21 05:45:08;;;;;;;16.20;12.80;;;;;;;3.04;55.96;101691.00;5088123;28;20492;-65
2021/12/21 05:47:36;;;;;;;12.50;10.57;;;;;;;3.08;55.63;101695.22;5087500;28;20906;-65
2021/12/21 05:50:04;;;;;;;8.48;7.30;;;;;;;3.03;55.86;101691.94;5086976;28;20413;-65
2021/12/21 05:52:31;;;;;;;7.57;6.78;;;;;;;2.99;55.86;101683.31;5087158;28;20436;-66
2021/12/21 05:54:58;;;;;;;7.75;6.32;;;;;;;2.94;55.86;101688.72;5088210;28;20401;-65
2021/12/21 05:57:25;;;;;;;12.10;11.00;;;;;;;3.08;55.87;101703.06;5088138;28;20993;-65
2021/12/21 05:59:53;;;;;;;22.35;20.20;;;;;;;3.10;55.75;101704.75;5087457;28;20501;-65
2021/12/21 06:02:21;;;;;;;11.93;10.73;;;;;;;3.17;55.40;101723.72;5087865;28;20531;-65
2021/12/21 06:04:48;;;;;;;7.53;6.78;;;;;;;3.14;55.27;101713.31;5088556;28;20898;-65
2021/12/21 06:07:15;;;;;;;8.25;7.45;;;;;;;3.42;54.53;101721.88;5088629;28;20496;-65
2021/12/21 06:09:45;;;;;;;9.52;8.57;;;;;;;3.45;54.43;101709.59;5089493;28;20441;-65
2021/12/21 06:12:18;;;;;;;8.70;7.80;;;;;;;4.16;52.89;101716.47;5092717;28;20486;-65
2021/12/21 06:15:11;;;;;;;10.10;9.10;;;;;;;5.56;49.45;101725.41;5092716;28;20417;-65
2021/12/21 06:23:34;;;;;;;12.13;10.02;;;;;;;8.44;42.01;101761.66;5092802;28;20428;-65
2021/12/21 06:26:03;;;;;;;11.48;9.73;;;;;;;9.29;40.22;101767.28;5092491;28;20441;-66
2021/12/21 06:28:31;;;;;;;8.98;7.88;;;;;;;10.15;38.22;101768.03;5092874;28;20416;-64
2021/12/21 06:30:58;;;;;;;7.97;6.73;;;;;;;10.45;37.43;101769.69;5092366;28;20409;-64
2021/12/21 06:33:26;;;;;;;9.88;7.90;;;;;;;11.29;36.02;101779.06;5092459;28;20420;-64
2021/12/21 06:35:54;;;;;;;9.37;7.80;;;;;;;11.94;34.82;101774.56;5092329;28;20429;-65
2021/12/21 06:38:21;;;;;;;7.10;6.40;;;;;;;13.00;33.06;101788.88;5092793;28;20539;-65
2021/12/21 06:40:49;;;;;;;9.07;8.15;;;;;;;13.61;31.95;101793.97;5090944;28;20504;-66
2021/12/21 06:43:17;;;;;;;10.77;9.68;;;;;;;13.96;30.94;101792.13;5092041;28;20496;-66
2021/12/21 06:45:49;;;;;;;16.80;15.25;;;;;;;14.58;29.76;101796.03;5091997;28;20410;-66
2021/12/21 06:53:50;;;;;;;7.30;6.60;;;;;;;16.60;27.19;101798.09;5091992;28;20459;-64
2021/12/21 06:56:18;;;;;;;7.65;6.95;;;;;;;16.84;26.51;101795.03;5091973;28;20444;-65
2021/12/21 06:58:45;;;;;;;8.20;7.40;;;;;;;18.08;24.99;101805.69;5091977;28;20417;-65
2021/12/21 07:01:13;;;;;;;8.70;7.13;;;;;;;19.32;23.35;101808.53;5091905;28;20894;-66
2021/12/21 07:03:41;;;;;;;12.00;10.70;;;;;;;19.54;22.91;101818.72;5091836;28;20985;-66
2021/12/21 07:06:10;;;;;;;14.33;11.73;;;;;;;19.84;22.54;101827.34;5091865;28;20966;-65
2021/12/21 07:08:46;;;;;;;16.25;14.65;;;;;;;20.62;21.56;101823.56;5092205;28;20483;-66
2021/12/21 07:11:19;;;;;;;11.40;10.30;;;;;;;21.34;20.53;101831.78;5092011;28;20500;-66
2021/12/21 07:19:26;;;;;;;9.38;8.40;;;;;;;22.04;19.51;101848.31;5009628;28;20846;-66
2021/12/21 07:21:55;;;;;;;7.10;6.20;;;;;;;22.78;18.43;101851.47;5070865;28;20829;-67
2021/12/21 07:24:22;;;;;;;8.32;6.85;;;;;;;23.38;18.15;101852.50;5091437;28;20411;-66
2021/12/21 07:26:49;;;;;;;16.20;10.10;;;;;;;23.32;17.99;101850.53;5091655;28;20472;-66
2021/12/21 07:29:16;;;;;;;12.88;10.80;;;;;;;24.13;17.23;101856.09;5091349;28;20973;-66
2021/12/21 07:31:44;;;;;;;11.85;8.55;;;;;;;24.05;17.05;101859.72;5091186;28;20520;-67
2021/12/21 07:34:11;;;;;;;31.00;23.02;;;;;;;23.61;17.49;101847.03;5090454;28;20413;-67
2021/12/21 07:36:42;;;;;;;34.53;23.38;;;;;;;23.52;17.00;101850.81;5091130;28;20432;-66
2021/12/21 07:39:13;;;;;;;17.70;15.15;;;;;;;24.31;16.84;101858.34;5091285;28;20409;-66
2021/12/21 07:41:41;;;;;;;22.25;18.55;;;;;;;24.97;15.65;101848.25;5091439;28;20420;-66
2021/12/21 07:44:09;;;;;;;17.67;13.35;;;;;;;24.56;15.98;101851.59;5091263;28;20415;-66
2021/12/21 07:46:36;;;;;;;12.63;11.43;;;;;;;24.45;15.81;101849.34;5091028;28;20445;-66
2021/12/21 07:49:04;;;;;;;9.68;6.97;;;;;;;24.67;15.19;101852.94;5090950;28;20486;-66
2021/12/21 07:51:31;;;;;;;7.50;5.07;;;;;;;25.57;14.41;101848.72;5091012;28;20420;-67
2021/12/21 07:53:59;;;;;;;8.30;4.80;;;;;;;26.18;14.08;101863.47;5091037;28;20412;-64
2021/12/21 07:56:27;;;;;;;9.77;5.27;;;;;;;26.13;13.96;101858.63;5090674;28;20504;-64
2021/12/21 07:58:54;;;;;;;6.90;5.20;;;;;;;27.16;13.34;101865.78;5090636;28;20910;-64
2021/12/21 08:01:22;;;;;;;7.63;5.15;;;;;;;27.08;13.04;101879.59;5090431;28;20965;-65
2021/12/21 08:03:49;;;;;;;5.22;4.07;;;;;;;27.28;12.70;101877.72;5090383;28;20424;-64
2021/12/21 08:06:17;;;;;;;7.18;3.45;;;;;;;26.34;13.03;101868.56;5090725;28;20417;-64
2021/12/21 08:08:45;;;;;;;5.20;4.05;;;;;;;27.48;12.64;101882.31;5090517;28;20986;-65
2021/12/21 08:11:16;;;;;;;7.35;4.25;;;;;;;27.51;12.28;101879.16;5090440;28;20786;-65
2021/12/21 08:13:47;;;;;;;5.57;4.38;;;;;;;27.87;12.17;101875.97;5090387;28;20420;-65
2021/12/21 08:16:15;;;;;;;6.40;3.70;;;;;;;28.38;11.85;101890.66;5090778;28;20496;-66
2021/12/21 08:18:42;;;;;;;5.63;3.83;;;;;;;29.07;11.47;101897.16;5090177;28;20492;-66
2021/12/21 08:21:09;;;;;;;5.45;4.13;;;;;;;29.22;11.13;101902.31;5090570;28;20416;-66
2021/12/21 08:23:36;;;;;;;5.95;4.60;;;;;;;27.46;12.17;101895.31;5090370;28;20488;-66
2021/12/21 08:26:04;;;;;;;7.40;4.63;;;;;;;28.16;11.92;101904.59;5090656;28;20488;-66
2021/12/21 08:28:31;;;;;;;9.13;5.57;;;;;;;28.73;11.29;101907.47;5090055;28;20865;-66
2021/12/21 08:30:59;;;;;;;9.90;7.32;;;;;;;26.37;12.39;101905.34;5090158;28;20499;-66
2021/12/21 08:33:26;;;;;;;6.95;5.20;;;;;;;26.15;12.57;101904.63;5089664;28;20496;-66
2021/12/21 08:35:54;;;;;;;9.67;5.83;;;;;;;20.07;17.36;101904.75;5090041;28;20881;-66
2021/12/21 08:38:21;;;;;;;11.23;7.13;;;;;;;19.59;18.09;101915.03;5089885;28;20429;-65
2021/12/21 08:40:50;;;;;;;10.43;6.68;;;;;;;23.22;15.37;101914.84;5089873;28;20492;-65
2021/12/21 08:43:19;;;;;;;7.85;6.50;;;;;;;26.75;12.60;101927.44;5090217;28;20413;-66
2021/12/21 08:45:49;;;;;;;5.83;4.10;;;;;;;25.66;13.24;101925.38;5090025;28;20405;-66
2021/12/21 08:48:18;;;;;;;5.90;4.78;;;;;;;27.44;12.28;101927.34;5090039;28;20443;-66
2021/12/21 08:50:46;;;;;;;6.85;4.90;;;;;;;27.71;11.68;101914.53;5089776;28;20488;-66
2021/12/21 08:53:14;;;;;;;7.82;6.30;;;;;;;29.31;10.84;101921.97;5090123;28;20484;-67
2021/12/21 08:55:42;;;;;;;8.70;7.60;;;;;;;28.66;11.22;101920.31;5089654;28;20782;-67
2021/12/21 08:58:09;;;;;;;6.93;5.63;;;;;;;29.31;10.92;101925.53;5089745;28;20425;-67
2021/12/21 09:00:37;;;;;;;6.70;5.57;;;;;;;29.30;10.57;101923.88;5089590;28;20409;-66
2021/12/21 09:03:06;;;;;;;7.65;5.40;;;;;;;30.09;10.01;101920.56;5089370;28;20903;-66
2021/12/21 09:05:34;;;;;;;4.55;3.72;;;;;;;30.27;10.05;101917.00;5088254;28;20590;-66
2021/12/21 09:08:02;;;;;;;4.40;3.90;;;;;;;29.47;10.37;101918.69;5089551;28;20484;-67
2021/12/21 09:10:30;;;;;;;5.50;4.20;;;;;;;29.46;10.44;101919.75;5089472;28;20413;-66
2021/12/21 09:12:57;;;;;;;5.90;4.80;;;;;;;31.01;9.62;101909.47;5089480;28;20416;-66
2021/12/21 09:15:26;;;;;;;4.85;4.32;;;;;;;30.39;10.00;101919.81;5089422;28;20413;-67
2021/12/21 09:17:54;;;;;;;5.93;5.32;;;;;;;31.48;9.31;101927.91;5089620;28;20552;-66
2021/12/21 09:20:24;;;;;;;6.40;4.82;;;;;;;31.45;9.20;101929.22;5089459;28;20452;-66
2021/12/21 09:22:53;;;;;;;4.47;4.07;;;;;;;30.53;9.55;101921.31;5089936;28;20846;-67
2021/12/21 09:25:20;;;;;;;7.80;4.47;;;;;;;29.87;9.57;101922.94;5089265;28;20476;-67
2021/12/21 09:27:50;;;;;;;9.18;5.72;;;;;;;31.53;8.92;101928.03;5089064;28;20499;-67
2021/12/21 09:30:19;;;;;;;5.65;4.28;;;;;;;30.54;9.27;101918.34;5089195;28;20492;-66
2021/12/21 09:32:46;;;;;;;5.25;4.57;;;;;;;30.78;9.16;101910.25;5089179;28;20415;-66
2021/12/21 09:35:14;;;;;;;7.95;4.93;;;;;;;31.07;8.90;101924.13;5089196;28;20500;-67
2021/12/21 09:37:41;;;;;;;9.13;5.80;;;;;;;32.36;8.40;101927.88;5089416;28;20425;-67
2021/12/21 09:40:12;;;;;;;6.18;4.80;;;;;;;31.14;8.96;101911.16;5089168;28;20409;-67
2021/12/21 09:42:40;;;;;;;14.10;4.50;;;;;;;30.37;9.21;101917.31;5089058;28;20975;-67
2021/12/21 09:45:08;;;;;;;5.18;3.90;;;;;;;30.64;9.37;101925.19;5089973;28;20886;-67
2021/12/21 09:47:35;;;;;;;5.97;3.97;;;;;;;31.15;8.99;101926.53;5093685;28;20496;-67
2021/12/21 09:50:04;;;;;;;6.68;4.45;;;;;;;31.08;8.94;101928.53;5093792;28;20491;-66
2021/12/21 09:52:32;;;;;;;6.30;4.28;;;;;;;30.75;9.09;101918.91;5093498;28;20503;-67
2021/12/21 09:55:00;;;;;;;8.45;5.72;;;;;;;31.64;8.53;101916.22;5093062;28;20409;-67
2021/12/21 09:57:29;;;;;;;8.68;7.07;;;;;;;32.23;8.30;101915.31;5092949;28;20511;-67
2021/12/21 09:59:56;;;;;;;8.00;5.50;;;;;;;32.34;8.02;101914.41;5093304;28;20489;-67
2021/12/21 10:02:26;;;;;;;5.63;4.50;;;;;;;31.08;8.25;101914.84;5092982;28;20484;-67
2021/12/21 10:04:57;;;;;;;6.72;5.70;;;;;;;30.68;8.42;101918.19;5092884;28;20409;-66
2021/12/21 10:07:25;;;;;;;11.93;9.38;;;;;;;30.93;8.13;101920.78;5091953;28;20575;-67
2021/12/21 10:10:05;;;;;;;6.32;5.10;;;;;;;31.90;7.60;101919.53;5092832;28;20559;-67
2021/12/21 10:12:35;;;;;;;6.43;5.00;;;;;;;31.13;8.18;101921.28;5093137;28;20456;-67
2021/12/21 10:15:06;;;;;;;6.17;5.47;;;;;;;31.13;8.01;101921.28;5092746;28;20932;-66
2021/12/21 10:17:35;;;;;;;6.03;4.70;;;;;;;30.96;8.00;101920.28;5092969;28;20424;-67
2021/12/21 10:20:02;;;;;;;7.63;6.97;;;;;;;30.92;8.19;101911.75;5092929;28;20409;-67
2021/12/21 10:22:29;;;;;;;4.40;3.75;;;;;;;29.71;8.95;101925.19;5092962;28;20401;-66
2021/12/21 10:24:58;;;;;;;6.80;5.97;;;;;;;31.02;8.15;101927.56;5092403;28;20416;-67
2021/12/21 10:27:25;;;;;;;5.13;4.63;;;;;;;30.10;8.39;101914.88;5092605;28;20405;-66
2021/12/21 10:29:56;;;;;;;7.88;7.10;;;;;;;29.62;8.77;101915.59;5092518;28;20873;-66
2021/12/21 10:32:26;;;;;;;4.30;3.87;;;;;;;28.64;9.16;101916.13;5092498;28;20412;-66
2021/12/21 10:34:56;;;;;;;4.40;3.70;;;;;;;28.17;9.57;101914.44;5090632;28;20413;-66
2021/12/21 10:37:27;;;;;;;4.40;3.80;;;;;;;27.25;9.89;101908.09;5092160;28;20471;-66
2021/12/21 10:40:16;;;;;;;5.97;5.47;;;;;;;27.97;9.61;101905.50;5092287;28;20449;-66
2021/12/21 10:42:52;;;;;;;6.53;5.93;;;;;;;27.99;9.54;101902.56;5092531;28;20432;-66
2021/12/21 10:45:26;;;;;;;5.40;4.90;;;;;;;28.75;9.32;101909.97;5092456;28;20410;-66
2021/12/21 10:47:53;;;;;;;31.67;21.23;;;;;;;28.70;9.26;101904.34;5091975;28;20405;-66
2021/12/21 10:50:21;;;;;;;13.55;10.57;;;;;;;25.05;11.09;101903.38;5092188;28;20412;-66
2021/12/21 10:52:52;;;;;;;23.55;15.98;;;;;;;23.73;12.41;101902.34;5091845;28;20907;-66
2021/12/21 10:55:27;;;;;;;10.63;8.40;;;;;;;21.77;12.93;101909.78;5092272;28;20401;-65
2021/12/21 10:58:09;;;;;;;23.13;15.88;;;;;;;23.64;10.97;101906.19;5091689;28;20431;-65
2021/12/21 11:00:41;;;;;;;28.25;20.05;;;;;;;25.12;10.49;101907.81;5092222;28;20408;-66
2021/12/21 11:03:08;;;;;;;8.73;7.55;;;;;;;23.17;11.02;101899.97;5092178;28;20462;-66
2021/12/21 11:05:35;;;;;;;11.43;6.13;;;;;;;21.38;12.52;101903.22;5092099;28;20480;-66
2021/12/21 11:08:06;;;;;;;16.40;12.82;;;;;;;22.65;12.35;101905.22;5091732;28;20409;-66
2021/12/21 11:10:36;;;;;;;16.92;14.10;;;;;;;19.25;14.17;101913.09;5091692;28;20906;-66
2021/12/21 11:13:05;;;;;;;13.27;11.70;;;;;;;17.76;15.10;101901.59;5091711;28;20437;-66
2021/12/21 11:15:35;;;;;;;7.37;6.40;;;;;;;19.63;14.00;101908.34;5090331;28;20423;-66
2021/12/21 11:18:06;;;;;;;6.40;5.57;;;;;;;18.00;15.18;101900.28;5091427;28;20512;-66
2021/12/21 11:20:35;;;;;;;11.27;8.13;;;;;;;16.23;16.77;101905.72;5091747;28;20405;-66
2021/12/21 11:23:03;;;;;;;6.30;5.43;;;;;;;15.31;17.60;101906.44;5091264;28;20936;-65
2021/12/21 11:25:31;;;;;;;5.03;3.92;;;;;;;15.98;16.89;101901.69;5091182;28;20918;-66
2021/12/21 11:28:01;;;;;;;8.10;6.60;;;;;;;16.78;16.33;101898.09;5091203;28;20508;-65
2021/12/21 11:30:29;;;;;;;7.80;6.55;;;;;;;15.53;17.30;101894.78;5091215;28;20490;-65
2021/12/21 11:32:57;;;;;;;6.40;5.80;;;;;;;15.85;16.83;101901.03;5091481;28;20492;-65
2021/12/21 11:38:13;;;;;;;7.90;5.22;;;;;;;14.84;17.70;101900.53;5091092;28;20953;-65
2021/12/21 11:40:43;;;;;;;12.57;7.80;;;;;;;14.36;17.85;101891.06;5091126;28;20420;-65
2021/12/21 11:43:17;;;;;;;9.07;7.22;;;;;;;13.57;18.49;101895.50;5091363;28;20421;-65
2021/12/21 11:45:52;;;;;;;8.45;4.47;;;;;;;12.85;19.13;101891.06;5090881;28;20902;-65
2021/12/21 11:48:27;;;;;;;11.30;7.73;;;;;;;13.12;19.15;101889.97;5090759;28;20485;-67
2021/12/21 11:51:03;;;;;;;10.65;5.70;;;;;;;12.54;19.43;101880.03;5090609;28;20413;-64
2021/12/21 11:53:30;;;;;;;8.60;5.15;;;;;;;11.67;19.98;101889.69;5091020;28;20791;-64
2021/12/21 11:55:57;;;;;;;12.18;7.20;;;;;;;11.41;20.49;101876.41;5090999;28;20423;-66
2021/12/21 11:58:27;;;;;;;8.32;6.30;;;;;;;11.19;21.00;101892.03;5090726;28;20885;-63
2021/12/21 12:00:56;;;;;;;7.93;5.18;;;;;;;10.65;21.46;101892.94;5090657;28;20413;-64
2021/12/21 12:03:25;;;;;;;17.92;10.57;;;;;;;10.31;21.87;101903.00;5090575;28;20504;-64
2021/12/21 12:05:57;;;;;;;9.18;6.95;;;;;;;9.96;22.35;101902.53;5090850;28;20423;-63
2021/12/21 12:08:26;;;;;;;8.30;5.45;;;;;;;9.85;22.13;101900.50;5089985;28;20416;-64
2021/12/21 12:10:55;;;;;;;9.38;5.20;;;;;;;9.67;22.52;101905.16;5090566;28;20929;-65